Time;durP1;ratioP1;P1;durP2;ratioP2;P2;SDS_P1;SDS_P2;PMS_P1;PMS_P2;Temp;Humidity;BMP_temperature;BMP_pressure;BME280_temperature;BME280_humidity;BME280_pressure;Samples;Min_cycle;Max_cycle;Signal;HPM_P1;HPM_P2
2022/12/25 00:01:15;;;;;;;60.00;14.82;;;;;;;;;;5112206;28;20055;-81
2022/12/25 00:03:42;;;;;;;58.42;14.25;;;;;;;;;;5111636;28;20160;-81
2022/12/25 00:06:08;;;;;;;58.40;15.07;;;;;;;;;;5104432;28;20052;-81
2022/12/25 00:08:35;;;;;;;61.47;14.43;;;;;;;;;;5092058;28;20088;-81
2022/12/25 00:11:03;;;;;;;52.03;14.13;;;;;;;;;;5095776;28;20048;-81
2022/12/25 00:13:30;;;;;;;63.13;14.80;;;;;;;;;;5126008;27;20048;-81
2022/12/25 00:15:56;;;;;;;60.80;14.73;;;;;;;;;;5111542;27;20371;-81
2022/12/25 00:18:23;;;;;;;61.80;14.93;;;;;;;;;;5112558;28;20067;-81
2022/12/25 00:20:57;;;;;;;55.67;13.95;;;;;;;;;;5109213;28;20052;-81
2022/12/25 00:23:23;;;;;;;63.92;13.95;;;;;;;;;;5100828;27;20424;-81
2022/12/25 00:25:50;;;;;;;51.38;12.80;;;;;;;;;;5104537;27;20099;-81
2022/12/25 00:28:16;;;;;;;54.63;13.75;;;;;;;;;;5111170;28;20052;-81
2022/12/25 00:30:43;;;;;;;58.60;14.02;;;;;;;;;;5109165;28;20129;-81
2022/12/25 00:33:09;;;;;;;55.30;14.43;;;;;;;;;;5112161;27;20143;-81
2022/12/25 00:35:36;;;;;;;61.33;15.00;;;;;;;;;;5109839;28;20557;-81
2022/12/25 00:38:02;;;;;;;43.80;13.88;;;;;;;;;;5110178;27;20055;-81
2022/12/25 00:40:29;;;;;;;47.28;13.82;;;;;;;;;;5106864;28;20052;-81
2022/12/25 00:42:57;;;;;;;50.75;13.73;;;;;;;;;;5112063;27;20072;-81
2022/12/25 00:45:24;;;;;;;59.35;13.45;;;;;;;;;;5111570;27;20540;-81
2022/12/25 00:47:50;;;;;;;62.80;13.68;;;;;;;;;;5111614;27;20052;-81
2022/12/25 00:50:17;;;;;;;47.63;12.90;;;;;;;;;;5108761;27;20301;-81
2022/12/25 00:52:43;;;;;;;46.30;12.73;;;;;;;;;;5109681;27;20060;-81
2022/12/25 00:55:09;;;;;;;51.17;13.50;;;;;;;;;;5111453;27;20785;-81
2022/12/25 00:57:36;;;;;;;46.55;13.40;;;;;;;;;;5105210;27;20899;-81
2022/12/25 01:00:03;;;;;;;55.47;14.27;;;;;;;;;;5093837;28;21284;-81
2022/12/25 01:02:29;;;;;;;47.03;13.02;;;;;;;;;;5108787;27;20052;-81
2022/12/25 01:04:55;;;;;;;50.75;12.63;;;;;;;;;;5111695;27;20884;-81
2022/12/25 01:07:23;;;;;;;49.65;12.80;;;;;;;;;;5111481;27;20070;-81
2022/12/25 01:12:37;;;;;;;51.78;12.95;;;;;;;;;;5091566;28;20061;-81
2022/12/25 01:15:06;;;;;;;48.83;13.52;;;;;;;;;;5111484;27;20048;-81
2022/12/25 01:17:32;;;;;;;47.55;13.43;;;;;;;;;;5108245;27;20533;-81
2022/12/25 01:19:59;;;;;;;50.58;12.77;;;;;;;;;;5109835;28;20052;-81
2022/12/25 01:22:25;;;;;;;56.28;13.02;;;;;;;;;;5111576;28;20106;-81
2022/12/25 01:24:52;;;;;;;53.40;13.60;;;;;;;;;;5109576;28;20052;-81
2022/12/25 01:27:18;;;;;;;51.92;11.77;;;;;;;;;;5110136;27;20052;-81
2022/12/25 01:29:45;;;;;;;41.25;11.68;;;;;;;;;;5110269;27;20129;-81
2022/12/25 01:32:11;;;;;;;41.78;12.32;;;;;;;;;;5093870;27;20045;-81
2022/12/25 01:34:38;;;;;;;46.15;12.65;;;;;;;;;;5094123;28;20113;-81
2022/12/25 01:37:07;;;;;;;51.15;12.15;;;;;;;;;;5109235;27;20087;-81
2022/12/25 01:39:34;;;;;;;46.97;11.63;;;;;;;;;;5110482;27;20493;-81
2022/12/25 01:42:00;;;;;;;57.95;13.93;;;;;;;;;;5110252;28;20048;-81
2022/12/25 01:44:35;;;;;;;49.72;12.05;;;;;;;;;;5110231;27;20048;-81
2022/12/25 01:47:02;;;;;;;47.05;11.30;;;;;;;;;;5110168;27;20056;-81
2022/12/25 01:49:30;;;;;;;46.17;11.43;;;;;;;;;;5109776;27;20056;-81
2022/12/25 01:52:01;;;;;;;37.78;11.68;;;;;;;;;;5111316;27;20056;-81
2022/12/25 01:54:29;;;;;;;52.75;11.35;;;;;;;;;;5111621;27;20058;-81
2022/12/25 01:56:57;;;;;;;55.20;11.90;;;;;;;;;;5108491;27;20056;-81
2022/12/25 01:59:24;;;;;;;50.05;11.07;;;;;;;;;;5109517;27;20064;-81
2022/12/25 02:01:51;;;;;;;46.75;10.95;;;;;;;;;;5110118;27;20055;-81
2022/12/25 02:04:20;;;;;;;40.92;11.13;;;;;;;;;;5111636;28;20125;-81
2022/12/25 02:06:48;;;;;;;57.15;11.57;;;;;;;;;;5096539;27;20139;-81
2022/12/25 02:09:15;;;;;;;38.45;10.82;;;;;;;;;;5109260;28;20515;-81
2022/12/25 02:11:56;;;;;;;41.50;11.13;;;;;;;;;;5110089;27;20138;-81
2022/12/25 02:14:24;;;;;;;40.55;9.90;;;;;;;;;;5103541;27;20074;-81
2022/12/25 02:16:52;;;;;;;41.83;10.38;;;;;;;;;;5109553;27;20127;-81
2022/12/25 02:19:38;;;;;;;42.95;11.02;;;;;;;;;;5106722;28;20082;-81
2022/12/25 02:22:05;;;;;;;31.08;9.90;;;;;;;;;;5099481;28;20506;-81
2022/12/25 02:24:43;;;;;;;37.25;10.18;;;;;;;;;;5105495;27;20163;-81
2022/12/25 02:27:14;;;;;;;52.28;11.70;;;;;;;;;;5094954;27;20087;-81
2022/12/25 02:29:58;;;;;;;39.97;10.35;;;;;;;;;;5107843;27;20135;-81
2022/12/25 02:32:31;;;;;;;59.67;11.52;;;;;;;;;;5111224;27;20138;-81
2022/12/25 02:35:21;;;;;;;39.63;9.82;;;;;;;;;;5110142;27;20079;-81
2022/12/25 02:37:54;;;;;;;41.95;10.68;;;;;;;;;;5100110;27;20131;-81
2022/12/25 02:40:29;;;;;;;38.88;9.95;;;;;;;;;;5091342;28;20511;-81
2022/12/25 03:08:06;;;;;;;47.30;10.77;;;;;;;;;;5109010;28;20055;-81
2022/12/25 03:13:23;;;;;;;39.00;11.30;;;;;;;;;;5099355;28;20048;-81
2022/12/25 03:18:35;;;;;;;39.83;11.27;;;;;;;;;;5108606;28;20498;-81
2022/12/25 03:32:15;;;;;;;46.30;11.32;;;;;;;;;;5090263;28;20056;-81
2022/12/25 03:43:58;;;;;;;43.58;11.27;;;;;;;;;;5109779;28;20559;-81
2022/12/25 04:36:15;;;;;;;46.33;9.85;;;;;;;;;;5065744;28;20057;-81
2022/12/25 04:38:41;;;;;;;40.25;9.00;;;;;;;;;;5088779;27;20064;-81
2022/12/25 04:41:09;;;;;;;51.90;10.55;;;;;;;;;;5096388;28;20161;-81
2022/12/25 04:43:36;;;;;;;43.25;9.70;;;;;;;;;;5109874;27;20079;-81
2022/12/25 04:46:02;;;;;;;40.63;10.02;;;;;;;;;;5112680;27;20060;-81
2022/12/25 04:48:31;;;;;;;40.60;9.43;;;;;;;;;;5111951;28;20052;-81
2022/12/25 04:50:57;;;;;;;33.45;8.98;;;;;;;;;;5111621;27;20147;-81
2022/12/25 04:53:24;;;;;;;36.40;8.93;;;;;;;;;;5109268;27;20103;-81
2022/12/25 04:55:59;;;;;;;39.05;9.48;;;;;;;;;;5110813;27;20059;-81
2022/12/25 04:58:25;;;;;;;38.47;9.43;;;;;;;;;;5110939;28;20057;-81
2022/12/25 05:00:51;;;;;;;42.53;9.00;;;;;;;;;;5127009;27;20075;-81
2022/12/25 05:03:18;;;;;;;27.05;8.27;;;;;;;;;;5109933;27;20117;-81
2022/12/25 05:05:44;;;;;;;37.75;8.85;;;;;;;;;;5111661;27;20048;-81
2022/12/25 05:08:11;;;;;;;37.67;8.75;;;;;;;;;;5112283;27;20205;-81
2022/12/25 05:10:39;;;;;;;30.77;8.20;;;;;;;;;;5111909;27;20576;-81
2022/12/25 05:13:05;;;;;;;31.80;8.88;;;;;;;;;;5097778;27;20063;-81
2022/12/25 05:15:31;;;;;;;33.83;8.35;;;;;;;;;;5108357;27;20082;-81
2022/12/25 05:17:58;;;;;;;33.10;8.90;;;;;;;;;;5111294;27;20048;-81
2022/12/25 05:20:24;;;;;;;34.83;9.07;;;;;;;;;;5111535;27;20055;-81
2022/12/25 05:22:51;;;;;;;41.80;10.05;;;;;;;;;;5109204;27;20056;-81
2022/12/25 05:25:17;;;;;;;47.58;9.23;;;;;;;;;;5108533;28;20974;-81
2022/12/25 05:27:43;;;;;;;30.73;9.40;;;;;;;;;;5109917;27;20148;-81
2022/12/25 05:30:18;;;;;;;35.80;8.73;;;;;;;;;;5111223;27;20523;-81
2022/12/25 05:32:46;;;;;;;35.42;8.90;;;;;;;;;;5107987;27;20114;-81
2022/12/25 05:35:13;;;;;;;34.85;9.13;;;;;;;;;;5111302;28;20060;-81
2022/12/25 05:37:39;;;;;;;28.10;8.45;;;;;;;;;;5110518;27;20088;-81
2022/12/25 05:40:06;;;;;;;33.42;8.90;;;;;;;;;;5110446;27;20056;-81
2022/12/25 05:42:32;;;;;;;31.15;8.32;;;;;;;;;;5108906;27;20127;-81
2022/12/25 05:44:59;;;;;;;38.55;8.25;;;;;;;;;;5111137;27;20060;-81
2022/12/25 05:47:25;;;;;;;34.97;8.00;;;;;;;;;;5108757;27;20052;-81
2022/12/25 05:49:52;;;;;;;41.22;8.48;;;;;;;;;;5111162;27;20145;-81
2022/12/25 05:52:18;;;;;;;30.20;7.72;;;;;;;;;;5101960;27;20090;-81
2022/12/25 05:54:44;;;;;;;25.67;8.15;;;;;;;;;;5106830;27;20055;-81
2022/12/25 05:57:11;;;;;;;29.00;8.15;;;;;;;;;;5109601;28;20131;-81
2022/12/25 05:59:37;;;;;;;37.50;8.77;;;;;;;;;;5111874;27;20063;-81
2022/12/25 06:02:03;;;;;;;30.98;8.32;;;;;;;;;;5108864;27;20129;-80
2022/12/25 06:04:33;;;;;;;33.10;8.43;;;;;;;;;;5111110;27;20139;-81
2022/12/25 06:06:59;;;;;;;32.38;8.40;;;;;;;;;;5102080;27;20528;-81
2022/12/25 06:09:25;;;;;;;30.10;9.23;;;;;;;;;;5106651;27;20515;-80
2022/12/25 06:11:52;;;;;;;27.83;8.10;;;;;;;;;;5106807;27;20099;-81
2022/12/25 06:14:18;;;;;;;29.30;8.18;;;;;;;;;;5103763;28;20062;-81
2022/12/25 06:16:45;;;;;;;28.30;8.20;;;;;;;;;;5102725;27;20174;-80
2022/12/25 06:19:11;;;;;;;26.40;8.10;;;;;;;;;;5108410;27;20052;-80
2022/12/25 06:21:38;;;;;;;24.58;7.80;;;;;;;;;;5096059;28;20434;-81
2022/12/25 06:24:04;;;;;;;29.48;8.02;;;;;;;;;;5108285;27;20151;-81
2022/12/25 06:26:31;;;;;;;27.88;7.97;;;;;;;;;;5108329;27;20548;-80
2022/12/25 06:28:57;;;;;;;28.00;7.43;;;;;;;;;;5110166;27;20143;-80
2022/12/25 06:31:23;;;;;;;24.83;7.72;;;;;;;;;;5110238;27;20051;-80
2022/12/25 06:33:50;;;;;;;28.70;8.45;;;;;;;;;;5105116;27;20063;-81
2022/12/25 06:36:21;;;;;;;26.40;8.57;;;;;;;;;;5108721;27;20173;-80
2022/12/25 06:38:47;;;;;;;26.08;7.85;;;;;;;;;;5103118;27;20139;-81
2022/12/25 06:41:16;;;;;;;27.02;7.85;;;;;;;;;;5105635;28;20084;-81
2022/12/25 06:43:42;;;;;;;36.65;8.35;;;;;;;;;;5100501;28;20501;-80
2022/12/25 06:46:10;;;;;;;27.23;8.00;;;;;;;;;;5109811;27;20060;-81
2022/12/25 06:48:38;;;;;;;30.30;7.70;;;;;;;;;;5109780;27;20584;-80
2022/12/25 06:51:05;;;;;;;33.85;8.23;;;;;;;;;;5109941;27;20566;-80
2022/12/25 06:53:31;;;;;;;24.63;7.05;;;;;;;;;;5104407;27;20166;-80
2022/12/25 06:56:05;;;;;;;28.98;7.68;;;;;;;;;;5108945;27;20056;-80
2022/12/25 06:58:32;;;;;;;28.48;7.60;;;;;;;;;;5109579;27;20079;-80
2022/12/25 07:00:58;;;;;;;33.92;7.97;;;;;;;;;;5109613;27;20134;-80
2022/12/25 07:03:27;;;;;;;22.13;6.90;;;;;;;;;;5103591;27;20510;-81
2022/12/25 07:05:53;;;;;;;24.48;6.65;;;;;;;;;;5102837;27;20059;-81
2022/12/25 07:08:20;;;;;;;20.73;7.38;;;;;;;;;;5100401;27;20071;-81
2022/12/25 07:10:46;;;;;;;29.75;8.13;;;;;;;;;;5105217;27;20461;-81
2022/12/25 07:13:12;;;;;;;25.73;7.72;;;;;;;;;;5102503;28;20096;-81
2022/12/25 07:15:39;;;;;;;25.80;7.25;;;;;;;;;;5108921;28;20079;-81
2022/12/25 07:18:07;;;;;;;27.88;7.03;;;;;;;;;;5108110;28;20143;-81
2022/12/25 07:20:36;;;;;;;22.17;7.63;;;;;;;;;;5102677;27;20052;-81
2022/12/25 07:23:02;;;;;;;24.77;6.90;;;;;;;;;;5104722;27;20101;-81
2022/12/25 07:25:29;;;;;;;19.90;6.80;;;;;;;;;;5108377;27;20062;-80
2022/12/25 07:28:02;;;;;;;20.00;6.72;;;;;;;;;;5102341;27;20052;-80
2022/12/25 07:30:28;;;;;;;22.23;7.05;;;;;;;;;;5097960;27;20059;-80
2022/12/25 07:32:55;;;;;;;18.83;6.35;;;;;;;;;;5100647;28;20903;-81
2022/12/25 07:35:21;;;;;;;19.48;6.90;;;;;;;;;;5107520;27;20052;-80
2022/12/25 07:37:48;;;;;;;26.55;7.45;;;;;;;;;;5107558;27;20056;-81
2022/12/25 07:40:15;;;;;;;20.92;6.93;;;;;;;;;;5107385;27;20052;-81
2022/12/25 07:42:44;;;;;;;28.80;6.95;;;;;;;;;;5100498;27;20053;-81
2022/12/25 07:45:11;;;;;;;24.52;7.53;;;;;;;;;;5105296;27;20056;-81
2022/12/25 07:47:37;;;;;;;22.35;8.30;;;;;;;;;;5104884;27;20139;-81
2022/12/25 07:50:04;;;;;;;30.15;8.30;;;;;;;;;;5111185;27;21008;-81
2022/12/25 07:52:30;;;;;;;21.05;6.03;;;;;;;;;;5106100;27;20130;-81
2022/12/25 07:55:01;;;;;;;19.60;6.30;;;;;;;;;;5107622;27;20052;-82
2022/12/25 07:57:28;;;;;;;19.70;6.25;;;;;;;;;;5105848;27;20052;-82
2022/12/25 07:59:55;;;;;;;26.40;7.45;;;;;;;;;;5107416;28;20060;-82
2022/12/25 08:02:27;;;;;;;24.58;7.03;;;;;;;;;;5103999;27;20056;-82
2022/12/25 08:04:54;;;;;;;18.27;7.10;;;;;;;;;;5101694;28;20052;-82
2022/12/25 08:07:21;;;;;;;23.20;6.53;;;;;;;;;;5109411;27;20056;-82
2022/12/25 08:09:47;;;;;;;18.73;7.05;;;;;;;;;;5106290;27;20048;-81
2022/12/25 08:12:13;;;;;;;17.42;6.20;;;;;;;;;;5100109;27;20162;-82
2022/12/25 08:14:40;;;;;;;21.88;6.43;;;;;;;;;;5112212;27;20056;-81
2022/12/25 08:17:06;;;;;;;22.00;6.70;;;;;;;;;;5109523;27;20088;-81
2022/12/25 08:19:35;;;;;;;19.33;6.18;;;;;;;;;;5105442;27;20143;-82
2022/12/25 08:22:01;;;;;;;23.35;6.53;;;;;;;;;;5105397;27;20556;-82
2022/12/25 08:24:28;;;;;;;20.33;6.78;;;;;;;;;;5103886;27;20520;-82
2022/12/25 08:26:54;;;;;;;18.98;6.63;;;;;;;;;;5110553;28;20052;-82
2022/12/25 08:29:21;;;;;;;20.10;6.65;;;;;;;;;;5105268;28;20545;-82
2022/12/25 08:31:47;;;;;;;18.50;6.85;;;;;;;;;;5109976;28;20052;-82
2022/12/25 08:34:13;;;;;;;20.48;5.93;;;;;;;;;;5110986;27;20032;-82
2022/12/25 08:36:40;;;;;;;21.15;6.35;;;;;;;;;;5110857;27;20064;-82
2022/12/25 08:39:07;;;;;;;18.55;6.47;;;;;;;;;;5109711;27;20080;-81
2022/12/25 08:41:35;;;;;;;20.25;6.75;;;;;;;;;;5111501;27;20047;-82
2022/12/25 08:44:02;;;;;;;16.73;7.25;;;;;;;;;;5110957;28;20478;-82
2022/12/25 08:46:28;;;;;;;17.38;6.68;;;;;;;;;;5111633;27;20517;-82
2022/12/25 08:48:55;;;;;;;18.25;6.40;;;;;;;;;;5111913;28;20122;-82
2022/12/25 08:51:23;;;;;;;20.48;5.70;;;;;;;;;;5111039;28;20058;-82
2022/12/25 08:53:50;;;;;;;21.55;6.32;;;;;;;;;;5109113;27;20905;-82
2022/12/25 08:56:17;;;;;;;16.45;5.88;;;;;;;;;;5101412;27;20129;-82
2022/12/25 08:58:44;;;;;;;18.70;5.75;;;;;;;;;;5102896;28;20056;-82
2022/12/25 09:01:10;;;;;;;17.48;6.00;;;;;;;;;;5110571;27;20537;-82
2022/12/25 09:03:37;;;;;;;23.83;5.97;;;;;;;;;;5110824;27;20042;-82
2022/12/25 09:06:07;;;;;;;19.42;6.05;;;;;;;;;;5102887;27;20604;-81
2022/12/25 09:08:35;;;;;;;20.52;5.60;;;;;;;;;;5109920;27;20076;-81
2022/12/25 09:11:05;;;;;;;17.13;5.88;;;;;;;;;;5110026;27;20138;-82
2022/12/25 09:13:31;;;;;;;20.38;5.80;;;;;;;;;;5111060;27;20055;-82
2022/12/25 09:15:58;;;;;;;15.00;5.55;;;;;;;;;;5109884;27;20086;-81
2022/12/25 09:18:25;;;;;;;17.17;6.10;;;;;;;;;;5111063;27;20056;-81
2022/12/25 09:21:00;;;;;;;15.73;5.43;;;;;;;;;;5112059;27;20087;-81
2022/12/25 09:23:27;;;;;;;17.15;6.20;;;;;;;;;;5111219;27;20052;-81
2022/12/25 09:25:53;;;;;;;16.65;5.85;;;;;;;;;;5107458;27;20636;-81
2022/12/25 09:28:20;;;;;;;16.33;6.03;;;;;;;;;;5094418;28;20052;-82
2022/12/25 09:30:49;;;;;;;17.70;6.32;;;;;;;;;;5110524;27;20052;-82
2022/12/25 09:33:16;;;;;;;15.63;6.10;;;;;;;;;;5109833;28;20056;-81
2022/12/25 09:35:55;;;;;;;18.63;5.80;;;;;;;;;;5112267;27;20060;-82
2022/12/25 09:38:22;;;;;;;18.95;7.28;;;;;;;;;;5111966;27;20056;-82
2022/12/25 09:40:56;;;;;;;21.80;8.00;;;;;;;;;;5106521;27;20611;-81
2022/12/25 09:43:24;;;;;;;21.42;8.45;;;;;;;;;;5107239;28;20052;-82
2022/12/25 09:45:51;;;;;;;21.85;8.23;;;;;;;;;;5110896;27;20105;-82
2022/12/25 09:48:17;;;;;;;20.80;7.93;;;;;;;;;;5112568;27;20060;-82
2022/12/25 09:51:08;;;;;;;17.65;6.93;;;;;;;;;;5099628;27;20054;-83
2022/12/25 09:53:39;;;;;;;24.52;8.30;;;;;;;;;;5110816;27;20062;-83
2022/12/25 09:56:15;;;;;;;19.25;8.02;;;;;;;;;;5111942;28;20052;-83
2022/12/25 09:58:42;;;;;;;24.23;7.53;;;;;;;;;;5110555;27;20076;-83
2022/12/25 10:01:11;;;;;;;20.83;7.70;;;;;;;;;;5094523;28;20159;-83
2022/12/25 10:03:48;;;;;;;21.77;7.22;;;;;;;;;;5109394;28;20078;-83
2022/12/25 10:06:14;;;;;;;19.17;6.35;;;;;;;;;;5105608;28;20048;-83
2022/12/25 10:08:59;;;;;;;25.65;7.93;;;;;;;;;;5110495;27;20048;-83
2022/12/25 10:11:45;;;;;;;21.75;7.03;;;;;;;;;;5096267;28;20079;-83
2022/12/25 10:14:18;;;;;;;18.65;7.45;;;;;;;;;;5104828;28;20596;-84
2022/12/25 10:16:48;;;;;;;39.85;14.05;;;;;;;;;;5109849;27;20063;-84
2022/12/25 10:19:14;;;;;;;25.80;8.70;;;;;;;;;;5100682;28;20060;-85
2022/12/25 10:21:41;;;;;;;24.23;8.90;;;;;;;;;;5101409;27;20099;-85
2022/12/25 10:24:13;;;;;;;25.02;8.07;;;;;;;;;;5104092;28;20060;-85
2022/12/25 10:26:40;;;;;;;23.80;8.13;;;;;;;;;;5102023;27;20514;-87
2022/12/25 10:29:14;;;;;;;24.58;7.93;;;;;;;;;;5108460;27;20557;-85
2022/12/25 10:31:44;;;;;;;18.90;7.53;;;;;;;;;;5101529;28;20078;-82
2022/12/25 10:34:11;;;;;;;30.25;7.80;;;;;;;;;;5104985;27;20056;-83
2022/12/25 10:36:38;;;;;;;23.65;9.02;;;;;;;;;;5110347;28;20071;-86
2022/12/25 10:39:04;;;;;;;27.35;9.65;;;;;;;;;;5113091;28;20566;-83
2022/12/25 10:41:50;;;;;;;28.60;11.20;;;;;;;;;;5111052;27;20055;-82
2022/12/25 10:44:20;;;;;;;39.22;11.90;;;;;;;;;;5108608;27;20059;-84
2022/12/25 10:46:48;;;;;;;26.40;10.40;;;;;;;;;;5108989;27;20535;-87
2022/12/25 10:49:19;;;;;;;31.33;11.50;;;;;;;;;;5108108;27;20067;-84
2022/12/25 10:51:46;;;;;;;32.53;11.98;;;;;;;;;;5105526;27;20534;-83
2022/12/25 10:54:29;;;;;;;32.67;14.05;;;;;;;;;;5106462;27;20060;-84
2022/12/25 10:57:00;;;;;;;33.75;12.52;;;;;;;;;;5103832;27;20123;-83
2022/12/25 10:59:27;;;;;;;;;;;;;;;;;;5098641;28;20052;-84
2022/12/25 11:01:54;;;;;;;27.27;11.55;;;;;;;;;;5107141;27;47329;-83
2022/12/25 11:04:27;;;;;;;37.97;17.27;;;;;;;;;;5110021;27;20052;-84
2022/12/25 11:06:53;;;;;;;;;;;;;;;;;;5102437;28;20892;-83
2022/12/25 11:09:20;;;;;;;53.38;20.42;;;;;;;;;;5105432;28;48407;-84
2022/12/25 11:11:46;;;;;;;58.13;25.98;;;;;;;;;;5103591;28;20056;-83
2022/12/25 11:14:19;;;;;;;60.45;25.55;;;;;;;;;;5103286;27;20133;-83
2022/12/25 11:16:46;;;;;;;36.63;16.90;;;;;;;;;;5111687;27;20106;-85
2022/12/25 11:19:27;;;;;;;31.75;13.27;;;;;;;;;;5113405;27;20056;-85
2022/12/25 11:21:53;;;;;;;;;;;;;;;;;;5113001;27;20087;-84
2022/12/25 11:24:36;;;;;;;25.77;8.57;;;;;;;;;;5109116;28;43610;-84
2022/12/25 11:27:04;;;;;;;25.45;8.43;;;;;;;;;;5106128;27;20056;-84
2022/12/25 11:29:31;;;;;;;22.58;8.02;;;;;;;;;;5111107;28;20084;-83
2022/12/25 11:31:58;;;;;;;27.30;10.43;;;;;;;;;;5107097;27;20109;-84
2022/12/25 11:34:27;;;;;;;21.05;9.10;;;;;;;;;;5111201;27;20590;-85
2022/12/25 11:36:54;;;;;;;30.13;8.30;;;;;;;;;;5101110;28;20052;-84
2022/12/25 11:39:20;;;;;;;24.35;9.77;;;;;;;;;;5110392;27;20151;-83
2022/12/25 11:41:49;;;;;;;23.77;9.57;;;;;;;;;;5110130;27;20130;-86
2022/12/25 11:44:35;;;;;;;20.08;8.68;;;;;;;;;;5106554;27;20122;-84
2022/12/25 11:47:11;;;;;;;21.58;8.82;;;;;;;;;;5111084;27;20048;-85
2022/12/25 11:49:41;;;;;;;37.58;10.15;;;;;;;;;;5112398;28;20060;-84
2022/12/25 11:52:16;;;;;;;20.83;8.88;;;;;;;;;;5112943;27;20135;-83
2022/12/25 11:54:52;;;;;;;17.48;7.70;;;;;;;;;;5114481;27;20083;-84
2022/12/25 11:57:19;;;;;;;20.88;8.68;;;;;;;;;;5112472;27;20052;-83
2022/12/25 11:59:52;;;;;;;22.63;8.70;;;;;;;;;;5113011;27;20135;-83
2022/12/25 12:02:21;;;;;;;26.33;8.75;;;;;;;;;;5107996;28;20067;-83
2022/12/25 12:04:49;;;;;;;33.50;8.20;;;;;;;;;;5105726;28;20992;-83
2022/12/25 12:07:20;;;;;;;25.13;8.48;;;;;;;;;;5113611;27;20048;-83
2022/12/25 12:09:52;;;;;;;21.27;8.02;;;;;;;;;;5109207;28;20052;-84
2022/12/25 12:12:28;;;;;;;25.75;8.77;;;;;;;;;;5109651;27;20143;-84
2022/12/25 12:14:59;;;;;;;16.30;7.38;;;;;;;;;;5105565;28;20060;-84
2022/12/25 12:17:25;;;;;;;22.10;7.70;;;;;;;;;;5101317;27;20063;-84
2022/12/25 12:19:52;;;;;;;19.55;9.40;;;;;;;;;;5112580;27;20047;-84
2022/12/25 12:22:22;;;;;;;22.42;9.48;;;;;;;;;;5113166;27;20434;-83
2022/12/25 12:24:53;;;;;;;23.00;9.40;;;;;;;;;;5112762;27;20135;-83
2022/12/25 12:27:22;;;;;;;23.13;8.50;;;;;;;;;;5110755;28;20793;-83
2022/12/25 12:29:49;;;;;;;25.63;10.80;;;;;;;;;;5101005;27;20076;-83
2022/12/25 12:32:24;;;;;;;20.63;8.48;;;;;;;;;;5111845;28;20128;-83
2022/12/25 12:34:50;;;;;;;19.33;8.82;;;;;;;;;;5109462;27;20924;-83
2022/12/25 12:37:20;;;;;;;23.10;10.00;;;;;;;;;;5111221;27;20056;-84
2022/12/25 12:39:51;;;;;;;36.72;16.05;;;;;;;;;;5111121;27;20066;-84
2022/12/25 12:42:20;;;;;;;40.42;17.55;;;;;;;;;;5110448;27;20163;-84
2022/12/25 12:44:48;;;;;;;30.15;15.52;;;;;;;;;;5109763;27;20649;-85
2022/12/25 12:47:27;;;;;;;33.70;14.82;;;;;;;;;;5112961;27;20079;-85
2022/12/25 12:49:59;;;;;;;161.98;87.97;;;;;;;;;;5111127;27;20050;-85
2022/12/25 12:52:32;;;;;;;202.02;75.55;;;;;;;;;;5110574;28;20060;-84
2022/12/25 12:55:00;;;;;;;81.30;31.48;;;;;;;;;;5111665;27;20064;-85
2022/12/25 12:57:38;;;;;;;64.05;27.08;;;;;;;;;;5106163;27;20056;-85
2022/12/25 13:00:15;;;;;;;54.40;21.70;;;;;;;;;;5111689;27;21014;-84
2022/12/25 13:02:42;;;;;;;32.38;13.50;;;;;;;;;;5101798;27;20074;-85
2022/12/25 13:05:14;;;;;;;24.27;11.07;;;;;;;;;;5105891;27;20056;-85
2022/12/25 13:07:43;;;;;;;;;;;;;;;;;;5112754;27;20139;-85
2022/12/25 13:10:29;;;;;;;27.73;12.57;;;;;;;;;;5130002;27;44886;-85
2022/12/25 13:13:03;;;;;;;26.52;12.30;;;;;;;;;;5105907;28;20044;-85
2022/12/25 13:15:35;;;;;;;26.20;12.20;;;;;;;;;;5110060;28;20117;-86
2022/12/25 13:18:19;;;;;;;27.20;12.18;;;;;;;;;;5115271;28;20056;-84
2022/12/25 13:21:03;;;;;;;26.33;12.63;;;;;;;;;;5114215;27;20435;-85
2022/12/25 13:23:37;;;;;;;29.92;12.55;;;;;;;;;;5108739;27;20048;-85
2022/12/25 13:26:15;;;;;;;29.45;12.20;;;;;;;;;;5096705;28;20052;-85
2022/12/25 13:28:46;;;;;;;28.05;12.30;;;;;;;;;;5123189;27;20057;-85
2022/12/25 13:31:20;;;;;;;30.98;13.30;;;;;;;;;;5102763;27;20057;-85
2022/12/25 13:34:03;;;;;;;27.23;13.27;;;;;;;;;;5098959;27;20131;-85
2022/12/25 13:36:39;;;;;;;29.55;13.95;;;;;;;;;;5106249;27;20052;-85
2022/12/25 13:39:06;;;;;;;26.13;12.77;;;;;;;;;;5109279;27;21497;-85
2022/12/25 13:44:30;;;;;;;24.00;11.27;;;;;;;;;;5112754;28;20060;-83
2022/12/25 13:47:17;;;;;;;21.80;10.75;;;;;;;;;;5114611;27;20040;-83
2022/12/25 13:49:44;;;;;;;25.10;10.70;;;;;;;;;;5115358;28;20062;-84
2022/12/25 13:52:12;;;;;;;24.13;11.45;;;;;;;;;;5115479;27;20051;-83
2022/12/25 13:54:49;;;;;;;24.63;10.95;;;;;;;;;;5116265;27;20481;-84
2022/12/25 13:57:16;;;;;;;26.65;12.60;;;;;;;;;;5114959;27;20571;-84
2022/12/25 13:59:43;;;;;;;29.42;12.60;;;;;;;;;;5114549;27;20052;-84
2022/12/25 14:02:19;;;;;;;25.27;11.32;;;;;;;;;;5115466;27;20040;-84
2022/12/25 14:04:46;;;;;;;24.40;11.07;;;;;;;;;;5117854;27;20071;-84
2022/12/25 14:07:17;;;;;;;31.15;10.80;;;;;;;;;;5120315;27;20163;-84
2022/12/25 14:09:43;;;;;;;24.63;10.85;;;;;;;;;;5115843;27;20142;-83
2022/12/25 14:12:10;;;;;;;25.45;10.18;;;;;;;;;;5110295;27;20048;-84
2022/12/25 14:14:44;;;;;;;22.08;10.25;;;;;;;;;;5111846;28;20057;-84
2022/12/25 14:17:11;;;;;;;27.30;10.48;;;;;;;;;;5109253;27;20063;-84
2022/12/25 14:19:37;;;;;;;28.48;11.35;;;;;;;;;;5114798;28;20033;-84
2022/12/25 14:22:19;;;;;;;25.58;11.60;;;;;;;;;;5116587;27;20047;-84
2022/12/25 14:24:55;;;;;;;;;;;;;;;;;;5117898;27;20056;-84
2022/12/25 14:27:23;;;;;;;27.35;10.73;;;;;;;;;;5118617;27;46877;-84
2022/12/25 14:29:51;;;;;;;26.77;10.70;;;;;;;;;;5117837;27;20044;-84
2022/12/25 14:32:21;;;;;;;26.48;11.05;;;;;;;;;;5115816;28;20087;-85
2022/12/25 14:34:50;;;;;;;27.45;11.32;;;;;;;;;;5113036;27;20052;-85
2022/12/25 14:37:20;;;;;;;27.63;10.98;;;;;;;;;;5110787;27;20138;-84
2022/12/25 14:39:57;;;;;;;31.50;11.32;;;;;;;;;;5114070;27;21003;-85
2022/12/25 14:42:26;;;;;;;27.83;11.38;;;;;;;;;;5112883;27;20971;-85
2022/12/25 14:45:05;;;;;;;28.58;11.65;;;;;;;;;;5116113;27;20056;-85
2022/12/25 14:47:37;;;;;;;33.05;11.95;;;;;;;;;;5109813;27;20048;-85
2022/12/25 14:50:14;;;;;;;28.75;11.10;;;;;;;;;;5109130;28;20051;-85
2022/12/25 14:53:07;;;;;;;23.08;11.73;;;;;;;;;;5103630;28;20044;-84
2022/12/25 14:55:33;;;;;;;23.60;11.10;;;;;;;;;;5113292;27;20032;-85
2022/12/25 14:58:05;;;;;;;29.70;14.60;;;;;;;;;;5113076;27;20968;-84
2022/12/25 15:00:34;;;;;;;24.77;12.85;;;;;;;;;;5115363;27;20040;-84
2022/12/25 15:03:02;;;;;;;36.80;13.43;;;;;;;;;;5113391;27;20051;-82
2022/12/25 15:05:30;;;;;;;29.63;12.65;;;;;;;;;;5112563;27;20948;-82
2022/12/25 15:08:12;;;;;;;32.22;13.60;;;;;;;;;;5109231;27;20072;-82
2022/12/25 15:10:39;;;;;;;29.50;11.63;;;;;;;;;;5124204;27;20052;-82
2022/12/25 15:13:26;;;;;;;26.30;11.73;;;;;;;;;;5110850;28;20052;-82
2022/12/25 15:15:58;;;;;;;31.25;11.45;;;;;;;;;;5115353;28;20048;-82
2022/12/25 15:18:26;;;;;;;24.92;10.90;;;;;;;;;;5113957;27;20833;-82
2022/12/25 15:20:53;;;;;;;25.08;10.80;;;;;;;;;;5105092;28;20085;-81
2022/12/25 15:23:31;;;;;;;27.08;11.13;;;;;;;;;;5104015;27;20052;-82
2022/12/25 15:25:57;;;;;;;29.92;11.77;;;;;;;;;;5116092;27;20992;-82
2022/12/25 15:28:24;;;;;;;23.80;10.65;;;;;;;;;;5107841;27;20067;-82
2022/12/25 15:30:50;;;;;;;24.75;11.65;;;;;;;;;;5106777;28;20050;-82
2022/12/25 15:33:17;;;;;;;21.95;10.70;;;;;;;;;;5111789;28;20052;-82
2022/12/25 15:35:44;;;;;;;25.02;11.60;;;;;;;;;;5112755;27;20056;-82
2022/12/25 15:38:11;;;;;;;27.48;10.88;;;;;;;;;;5114278;27;20877;-82
2022/12/25 15:40:38;;;;;;;25.20;12.02;;;;;;;;;;5104824;27;20749;-82
2022/12/25 15:43:05;;;;;;;23.40;11.80;;;;;;;;;;5112545;27;20056;-83
2022/12/25 15:45:47;;;;;;;21.48;11.07;;;;;;;;;;5115639;27;20058;-81
2022/12/25 15:48:14;;;;;;;22.73;10.68;;;;;;;;;;5113134;27;20509;-83
2022/12/25 15:50:41;;;;;;;23.50;10.43;;;;;;;;;;5114656;27;20055;-82
2022/12/25 15:53:08;;;;;;;22.85;10.23;;;;;;;;;;5111134;27;20070;-82
2022/12/25 15:55:35;;;;;;;27.70;12.63;;;;;;;;;;5112180;27;20096;-83
2022/12/25 15:58:02;;;;;;;25.45;12.25;;;;;;;;;;5113586;27;20068;-83
2022/12/25 16:00:28;;;;;;;28.67;11.95;;;;;;;;;;5110223;27;20079;-83
2022/12/25 16:02:55;;;;;;;23.83;11.07;;;;;;;;;;5111486;28;20534;-83
2022/12/25 16:05:22;;;;;;;23.95;11.00;;;;;;;;;;5111954;27;20359;-82
2022/12/25 16:07:48;;;;;;;26.95;12.02;;;;;;;;;;5109476;27;20129;-83
2022/12/25 16:10:17;;;;;;;29.50;11.88;;;;;;;;;;5109338;27;20036;-83
2022/12/25 16:12:43;;;;;;;20.85;10.48;;;;;;;;;;5109051;27;20132;-83
2022/12/25 16:15:11;;;;;;;26.13;12.25;;;;;;;;;;5104882;28;20048;-82
2022/12/25 16:17:37;;;;;;;28.50;13.18;;;;;;;;;;5106632;28;20973;-80
2022/12/25 16:20:04;;;;;;;29.88;15.18;;;;;;;;;;5101288;27;20107;-80
2022/12/25 16:22:38;;;;;;;31.63;16.77;;;;;;;;;;5103156;27;20048;-80
2022/12/25 16:25:12;;;;;;;39.72;20.10;;;;;;;;;;5108478;27;20056;-80